Flight Track Log - Related Links

Times and Time Zones

All times are in EDT time to prevent confusion due to time zone crossing. See the EGF4039 flight status page for this flight to view local times or setup timezone preferences in your user account.

Time Position Orientation Groundspeed Altitude Reporting Facility
EDT Latitude Longitude Course Direction KTS MPH feet Rate Location/Type
Thu 05:01:06 PM 42.5800 -92.4447 90° East 163 188 3,200  Level Chicago Center
Thu 05:02:08 PM 42.6150 -92.3986 44° Northeast 228 262 5,800 2,565 Climbing Chicago Center
Thu 05:03:10 PM 42.5656 -92.3203 131° Southeast 263 303 8,500 2,032 Climbing Chicago Center
Thu 05:04:12 PM 42.5014 -92.2492 141° Southeast 284 327 10,000 1,488 Climbing Chicago Center
Thu 05:05:15 PM 42.4544 -92.1375 120° Southeast 339 390 11,600 2,112 Climbing Chicago Center
Thu 05:06:00 PM 42.4833 -91.6712 90° East  Level FlightAware Approximate
Thu 05:06:17 PM 42.4506 -91.9736 92° East 365 420 14,400  Level Chicago Center
Thu 05:07:19 PM 42.4475 -91.8394 92° East 363 418 16,700 2,226 Climbing Chicago Center
Thu 05:08:21 PM 42.4419 -91.7058 93° East 362 417 19,000 2,226 Climbing Chicago Center
Thu 05:09:23 PM 42.4369 -91.5703 93° East 366 421 21,300 1,935 Climbing Chicago Center
Thu 05:10:25 PM 42.4314 -91.4044 93° East 370 426 23,000 823 Climbing Chicago Center
Thu 05:11:27 PM 42.4247 -91.2478 93° East 415 478 23,000  Level Chicago Center
Thu 05:12:29 PM 42.4175 -91.0814 93° East 444 511 23,000  Level Chicago Center
Thu 05:13:31 PM 42.4097 -90.9211 94° East 436 502 23,000  Level Chicago Center
Thu 05:14:33 PM 42.4031 -90.7592 93° East 436 502 23,000  Level Chicago Center
Thu 05:15:35 PM 42.4150 -90.5578 85° East 454 522 23,000  Level Chicago Center
Thu 05:16:37 PM 42.4333 -90.3889 82° East 458 527 23,000  Level Chicago Center
Thu 05:17:39 PM 42.4311 -90.2133 91° East 470 541 23,000  Level Chicago Center
Thu 05:18:41 PM 42.4250 -90.0419 93° East 463 533 23,000  Level Chicago Center
Thu 05:19:43 PM 42.4194 -89.8347 92° East 461 531 23,000  Level Chicago Center
Thu 05:20:45 PM 42.4147 -89.6606 92° East 464 534 23,000 -532 Level Chicago Center
Thu 05:21:47 PM 42.4094 -89.4894 92° East 458 527 21,900 -1,355 Descending Chicago Center
Thu 05:22:49 PM 42.4039 -89.3217 93° East 449 517 20,200 -1,887 Descending Chicago Center
Thu 05:23:51 PM 42.3983 -89.1581 93° East 440 506 18,000 -2,323 Descending Chicago Center
Thu 05:24:53 PM 42.3919 -88.9794 93° East 415 478 15,400 -2,371 Descending Chicago Center
Thu 05:25:55 PM 42.3878 -88.8303 92° East 402 463 13,100 -2,177 Descending Chicago Center
Thu 05:26:57 PM 42.3814 -88.6850 93° East 391 450 10,900 -1,500 Descending Chicago Center
Thu 05:27:59 PM 42.3761 -88.5475 93° East 375 432 10,000 -435 Descending Chicago Center
Thu 05:29:01 PM 42.3497 -88.4136 105° East 378 435 10,000  Level Chicago Center
Thu 05:30:03 PM 42.2847 -88.2944 126° Southeast 364 419 10,000 -339 Level Chicago Center
Thu 05:31:05 PM 42.2317 -88.2053 129° Southeast 310 357 9,300 -484 Descending Chicago Center
Thu 05:32:07 PM 42.1742 -88.1194 132° Southeast 308 354 9,000 -484 Descending Chicago Center
Thu 05:33:09 PM 42.1097 -88.0500 141° Southeast 300 345 8,300 -847 Descending Chicago Center
Thu 05:33:32 PM 42.1000 -88.0000 105° East 294 338 7,800 -876 Descending Chicago TRACON
Thu 05:34:38 PM 42.0833 -87.8833 101° East 252 290 7,000 -520 Descending Chicago TRACON
Thu 05:35:39 PM 42.0833 -87.8000 90° East 217 250 6,700 -645 Descending Chicago TRACON
Thu 05:36:39 PM 42.0833 -87.7333 90° East 220 253 5,700 -1,000 Descending Chicago TRACON

Login

Don't have an account? Register now (free) for customized features, flight alerts, and more!